sensor_id;sensor_type;location;lat;lon;timestamp;pressure;altitude;pressure_sealevel;temperature;humidity
16461;BME280;8341;42.048;24.650;2023-03-12T00:01:14;96200.22;;;8.59;69.15
16461;BME280;8341;42.048;24.650;2023-03-12T00:03:42;96191.72;;;8.46;70.05
16461;BME280;8341;42.048;24.650;2023-03-12T00:06:10;96206.56;;;8.50;69.08
16461;BME280;8341;42.048;24.650;2023-03-12T00:08:37;96195.88;;;8.41;68.74
16461;BME280;8341;42.048;24.650;2023-03-12T00:11:08;96211.97;;;8.45;68.42
16461;BME280;8341;42.048;24.650;2023-03-12T00:13:35;96222.28;;;8.41;66.96
16461;BME280;8341;42.048;24.650;2023-03-12T00:16:05;96225.72;;;8.36;66.86
16461;BME280;8341;42.048;24.650;2023-03-12T00:18:32;96217.31;;;8.34;67.67
16461;BME280;8341;42.048;24.650;2023-03-12T00:21:00;96214.25;;;8.26;68.06
16461;BME280;8341;42.048;24.650;2023-03-12T00:23:27;96208.03;;;8.20;68.89
16461;BME280;8341;42.048;24.650;2023-03-12T00:25:58;96206.69;;;8.10;69.22
16461;BME280;8341;42.048;24.650;2023-03-12T00:28:25;96203.97;;;8.10;69.82
16461;BME280;8341;42.048;24.650;2023-03-12T00:30:52;96224.44;;;8.05;69.90
16461;BME280;8341;42.048;24.650;2023-03-12T00:33:19;96207.06;;;7.97;70.09
16461;BME280;8341;42.048;24.650;2023-03-12T00:35:46;96223.47;;;7.83;69.10
16461;BME280;8341;42.048;24.650;2023-03-12T00:38:14;96207.91;;;7.83;70.35
16461;BME280;8341;42.048;24.650;2023-03-12T00:40:41;96196.22;;;7.72;71.04
16461;BME280;8341;42.048;24.650;2023-03-12T00:43:08;96200.75;;;7.60;73.01
16461;BME280;8341;42.048;24.650;2023-03-12T00:45:35;96202.88;;;7.50;72.75
16461;BME280;8341;42.048;24.650;2023-03-12T00:48:02;96202.78;;;7.39;73.49
16461;BME280;8341;42.048;24.650;2023-03-12T00:50:29;96194.00;;;7.30;74.20
16461;BME280;8341;42.048;24.650;2023-03-12T00:52:55;96201.69;;;7.31;75.03
16461;BME280;8341;42.048;24.650;2023-03-12T00:55:24;96196.97;;;7.32;75.39
16461;BME280;8341;42.048;24.650;2023-03-12T00:57:50;96207.84;;;7.32;75.91
16461;BME280;8341;42.048;24.650;2023-03-12T01:00:17;96210.53;;;7.32;75.64
16461;BME280;8341;42.048;24.650;2023-03-12T01:02:44;96210.97;;;7.25;75.14
16461;BME280;8341;42.048;24.650;2023-03-12T01:05:12;96211.09;;;7.16;75.31
16461;BME280;8341;42.048;24.650;2023-03-12T01:07:39;96212.16;;;7.04;75.08
16461;BME280;8341;42.048;24.650;2023-03-12T01:10:07;96221.97;;;7.01;75.25
16461;BME280;8341;42.048;24.650;2023-03-12T01:12:36;96212.97;;;6.89;75.99
16461;BME280;8341;42.048;24.650;2023-03-12T01:15:03;96224.22;;;6.82;74.88
16461;BME280;8341;42.048;24.650;2023-03-12T01:17:30;96218.53;;;6.80;76.89
16461;BME280;8341;42.048;24.650;2023-03-12T01:19:57;96224.28;;;6.88;77.84
16461;BME280;8341;42.048;24.650;2023-03-12T01:22:24;96227.72;;;6.88;78.86
16461;BME280;8341;42.048;24.650;2023-03-12T01:24:50;96233.63;;;6.87;77.76
16461;BME280;8341;42.048;24.650;2023-03-12T01:27:17;96226.91;;;6.82;77.69
16461;BME280;8341;42.048;24.650;2023-03-12T01:29:46;96240.19;;;6.80;75.77
16461;BME280;8341;42.048;24.650;2023-03-12T01:32:13;96240.91;;;6.81;75.63
16461;BME280;8341;42.048;24.650;2023-03-12T01:34:41;96242.41;;;6.82;76.24
16461;BME280;8341;42.048;24.650;2023-03-12T01:37:08;96242.59;;;6.78;74.94
16461;BME280;8341;42.048;24.650;2023-03-12T01:39:35;96253.94;;;6.77;74.97
16461;BME280;8341;42.048;24.650;2023-03-12T01:42:02;96256.00;;;6.67;74.09
16461;BME280;8341;42.048;24.650;2023-03-12T01:44:30;96256.38;;;6.60;72.06
16461;BME280;8341;42.048;24.650;2023-03-12T01:46:58;96271.81;;;6.54;71.63
16461;BME280;8341;42.048;24.650;2023-03-12T01:49:26;96269.19;;;6.60;71.22
16461;BME280;8341;42.048;24.650;2023-03-12T01:51:58;96275.16;;;6.49;70.12
16461;BME280;8341;42.048;24.650;2023-03-12T01:54:29;96290.66;;;6.49;67.89
16461;BME280;8341;42.048;24.650;2023-03-12T01:56:58;96291.78;;;6.42;66.75
16461;BME280;8341;42.048;24.650;2023-03-12T01:59:29;96301.88;;;6.42;66.45
16461;BME280;8341;42.048;24.650;2023-03-12T02:01:58;96315.88;;;6.40;65.99
16461;BME280;8341;42.048;24.650;2023-03-12T02:04:26;96323.59;;;6.32;65.55
16461;BME280;8341;42.048;24.650;2023-03-12T02:06:58;96323.50;;;6.27;65.99
16461;BME280;8341;42.048;24.650;2023-03-12T02:09:26;96326.09;;;6.07;62.02
16461;BME280;8341;42.048;24.650;2023-03-12T02:11:53;96327.78;;;6.04;63.41
16461;BME280;8341;42.048;24.650;2023-03-12T02:14:20;96329.72;;;6.04;63.06
16461;BME280;8341;42.048;24.650;2023-03-12T02:16:47;96341.41;;;6.10;61.98
16461;BME280;8341;42.048;24.650;2023-03-12T02:19:21;96337.56;;;6.02;61.56
16461;BME280;8341;42.048;24.650;2023-03-12T02:21:51;96339.06;;;6.03;62.46
16461;BME280;8341;42.048;24.650;2023-03-12T02:24:25;96345.22;;;6.03;62.53
16461;BME280;8341;42.048;24.650;2023-03-12T02:26:55;96354.16;;;5.95;61.66
16461;BME280;8341;42.048;24.650;2023-03-12T02:29:22;96360.13;;;5.99;61.22
16461;BME280;8341;42.048;24.650;2023-03-12T02:31:51;96367.69;;;5.95;60.88
16461;BME280;8341;42.048;24.650;2023-03-12T02:34:19;96367.09;;;5.91;61.39
16461;BME280;8341;42.048;24.650;2023-03-12T02:36:46;96367.00;;;5.85;61.43
16461;BME280;8341;42.048;24.650;2023-03-12T02:39:14;96372.50;;;5.91;61.68
16461;BME280;8341;42.048;24.650;2023-03-12T02:41:43;96378.44;;;5.80;61.65
16461;BME280;8341;42.048;24.650;2023-03-12T02:44:15;96379.16;;;5.81;61.32
16461;BME280;8341;42.048;24.650;2023-03-12T02:46:45;96382.34;;;5.79;62.46
16461;BME280;8341;42.048;24.650;2023-03-12T02:49:14;96390.94;;;5.78;62.12
16461;BME280;8341;42.048;24.650;2023-03-12T02:51:42;96383.66;;;5.84;63.01
16461;BME280;8341;42.048;24.650;2023-03-12T02:54:11;96376.44;;;5.90;63.38
16461;BME280;8341;42.048;24.650;2023-03-12T02:56:39;96387.53;;;5.92;63.55
16461;BME280;8341;42.048;24.650;2023-03-12T02:59:06;96381.56;;;5.88;64.01
16461;BME280;8341;42.048;24.650;2023-03-12T03:01:36;96384.72;;;5.86;64.10
16461;BME280;8341;42.048;24.650;2023-03-12T03:04:04;96387.28;;;5.81;63.11
16461;BME280;8341;42.048;24.650;2023-03-12T03:06:31;96380.09;;;5.78;64.33
16461;BME280;8341;42.048;24.650;2023-03-12T03:08:59;96385.22;;;5.76;64.28
16461;BME280;8341;42.048;24.650;2023-03-12T03:11:26;96390.75;;;5.81;65.01
16461;BME280;8341;42.048;24.650;2023-03-12T03:13:54;96401.13;;;5.83;64.66
16461;BME280;8341;42.048;24.650;2023-03-12T03:16:21;96401.84;;;5.83;60.04
16461;BME280;8341;42.048;24.650;2023-03-12T03:18:49;96402.91;;;5.86;60.82
16461;BME280;8341;42.048;24.650;2023-03-12T03:21:16;96407.41;;;5.89;56.91
16461;BME280;8341;42.048;24.650;2023-03-12T03:23:45;96409.34;;;5.88;58.42
16461;BME280;8341;42.048;24.650;2023-03-12T03:26:13;96418.63;;;5.96;57.26
16461;BME280;8341;42.048;24.650;2023-03-12T03:28:40;96429.13;;;6.03;52.96
16461;BME280;8341;42.048;24.650;2023-03-12T03:31:07;96424.09;;;6.11;52.45
16461;BME280;8341;42.048;24.650;2023-03-12T03:33:36;96428.00;;;6.10;52.75
16461;BME280;8341;42.048;24.650;2023-03-12T03:36:06;96436.13;;;6.10;53.80
16461;BME280;8341;42.048;24.650;2023-03-12T03:38:34;96431.91;;;6.09;52.95
16461;BME280;8341;42.048;24.650;2023-03-12T03:41:01;96435.78;;;6.17;53.57
16461;BME280;8341;42.048;24.650;2023-03-12T03:43:28;96439.13;;;6.12;52.94
16461;BME280;8341;42.048;24.650;2023-03-12T03:45:56;96432.50;;;6.13;52.47
16461;BME280;8341;42.048;24.650;2023-03-12T03:48:24;96445.44;;;6.09;51.70
16461;BME280;8341;42.048;24.650;2023-03-12T03:50:51;96454.59;;;6.11;52.06
16461;BME280;8341;42.048;24.650;2023-03-12T03:53:20;96458.06;;;6.12;52.83
16461;BME280;8341;42.048;24.650;2023-03-12T03:55:47;96461.41;;;6.07;51.80
16461;BME280;8341;42.048;24.650;2023-03-12T03:58:13;96457.63;;;6.13;51.41
16461;BME280;8341;42.048;24.650;2023-03-12T04:00:43;96461.06;;;6.14;53.13
16461;BME280;8341;42.048;24.650;2023-03-12T04:03:10;96467.69;;;6.13;52.38
16461;BME280;8341;42.048;24.650;2023-03-12T04:05:37;96464.88;;;6.07;50.76
16461;BME280;8341;42.048;24.650;2023-03-12T04:08:04;96472.13;;;6.01;50.60
16461;BME280;8341;42.048;24.650;2023-03-12T04:10:32;96473.56;;;6.11;50.37
16461;BME280;8341;42.048;24.650;2023-03-12T04:12:59;96476.72;;;6.10;50.63
16461;BME280;8341;42.048;24.650;2023-03-12T04:15:26;96485.41;;;6.14;51.55
16461;BME280;8341;42.048;24.650;2023-03-12T04:17:53;96481.22;;;6.13;50.20
16461;BME280;8341;42.048;24.650;2023-03-12T04:20:20;96473.56;;;6.11;49.77
16461;BME280;8341;42.048;24.650;2023-03-12T04:22:46;96478.06;;;6.14;49.82
16461;BME280;8341;42.048;24.650;2023-03-12T04:25:13;96486.81;;;6.09;50.74
16461;BME280;8341;42.048;24.650;2023-03-12T04:27:42;96501.66;;;6.14;50.16
16461;BME280;8341;42.048;24.650;2023-03-12T04:30:09;96501.09;;;6.10;50.38
16461;BME280;8341;42.048;24.650;2023-03-12T04:32:36;96504.16;;;6.03;50.63
16461;BME280;8341;42.048;24.650;2023-03-12T04:35:04;96514.22;;;6.02;50.66
16461;BME280;8341;42.048;24.650;2023-03-12T04:37:31;96518.88;;;6.02;49.72
16461;BME280;8341;42.048;24.650;2023-03-12T04:39:58;96511.78;;;6.04;50.42
16461;BME280;8341;42.048;24.650;2023-03-12T04:42:25;96519.06;;;5.98;50.90
16461;BME280;8341;42.048;24.650;2023-03-12T04:44:53;96529.69;;;6.02;50.10
16461;BME280;8341;42.048;24.650;2023-03-12T04:47:20;96534.19;;;6.05;50.74
16461;BME280;8341;42.048;24.650;2023-03-12T04:49:47;96539.91;;;6.07;49.80
16461;BME280;8341;42.048;24.650;2023-03-12T04:52:14;96538.69;;;6.08;49.08
16461;BME280;8341;42.048;24.650;2023-03-12T04:54:42;96534.59;;;6.12;48.83
16461;BME280;8341;42.048;24.650;2023-03-12T04:57:09;96532.66;;;6.13;50.78
16461;BME280;8341;42.048;24.650;2023-03-12T04:59:35;96527.88;;;6.08;49.93
16461;BME280;8341;42.048;24.650;2023-03-12T05:02:04;96532.38;;;6.11;49.79
16461;BME280;8341;42.048;24.650;2023-03-12T05:04:31;96550.09;;;6.12;48.74
16461;BME280;8341;42.048;24.650;2023-03-12T05:06:58;96562.16;;;6.11;47.74
16461;BME280;8341;42.048;24.650;2023-03-12T05:09:24;96568.13;;;6.15;47.86
16461;BME280;8341;42.048;24.650;2023-03-12T05:11:51;96570.84;;;6.15;48.39
16461;BME280;8341;42.048;24.650;2023-03-12T05:14:18;96572.03;;;6.14;48.59
16461;BME280;8341;42.048;24.650;2023-03-12T05:16:45;96577.75;;;6.16;47.63
16461;BME280;8341;42.048;24.650;2023-03-12T05:19:14;96585.69;;;6.19;48.03
16461;BME280;8341;42.048;24.650;2023-03-12T05:21:41;96573.50;;;6.24;47.72
16461;BME280;8341;42.048;24.650;2023-03-12T05:24:09;96589.16;;;6.20;48.90
16461;BME280;8341;42.048;24.650;2023-03-12T05:26:36;96589.91;;;6.20;48.85
16461;BME280;8341;42.048;24.650;2023-03-12T05:29:04;96595.19;;;6.15;48.03
16461;BME280;8341;42.048;24.650;2023-03-12T05:31:31;96596.41;;;6.14;47.75
16461;BME280;8341;42.048;24.650;2023-03-12T05:33:59;96606.16;;;6.20;46.97
16461;BME280;8341;42.048;24.650;2023-03-12T05:36:28;96611.97;;;6.28;48.09
16461;BME280;8341;42.048;24.650;2023-03-12T05:38:54;96619.47;;;6.33;47.22
16461;BME280;8341;42.048;24.650;2023-03-12T05:41:23;96612.97;;;6.40;47.90
16461;BME280;8341;42.048;24.650;2023-03-12T05:43:51;96618.69;;;6.42;46.73
16461;BME280;8341;42.048;24.650;2023-03-12T05:46:18;96615.72;;;6.30;46.93
16461;BME280;8341;42.048;24.650;2023-03-12T05:48:45;96623.66;;;6.43;46.41
16461;BME280;8341;42.048;24.650;2023-03-12T05:51:12;96616.72;;;6.42;45.97
16461;BME280;8341;42.048;24.650;2023-03-12T05:53:40;96620.06;;;6.37;45.79
16461;BME280;8341;42.048;24.650;2023-03-12T05:56:11;96618.06;;;6.47;46.03
16461;BME280;8341;42.048;24.650;2023-03-12T05:58:38;96636.22;;;6.55;45.08
16461;BME280;8341;42.048;24.650;2023-03-12T06:01:12;96641.06;;;6.51;45.93
16461;BME280;8341;42.048;24.650;2023-03-12T06:03:39;96645.84;;;6.56;46.53
16461;BME280;8341;42.048;24.650;2023-03-12T06:06:07;96649.44;;;6.62;44.67
16461;BME280;8341;42.048;24.650;2023-03-12T06:08:34;96648.91;;;6.49;44.27
16461;BME280;8341;42.048;24.650;2023-03-12T06:11:03;96659.41;;;6.56;43.87
16461;BME280;8341;42.048;24.650;2023-03-12T06:13:30;96658.47;;;6.59;44.51
16461;BME280;8341;42.048;24.650;2023-03-12T06:16:01;96660.56;;;6.64;45.64
16461;BME280;8341;42.048;24.650;2023-03-12T06:18:29;96665.97;;;6.64;45.36
16461;BME280;8341;42.048;24.650;2023-03-12T06:21:07;96673.47;;;6.69;44.59
16461;BME280;8341;42.048;24.650;2023-03-12T06:23:34;96670.72;;;6.78;44.99
16461;BME280;8341;42.048;24.650;2023-03-12T06:26:03;96680.72;;;6.63;44.65
16461;BME280;8341;42.048;24.650;2023-03-12T06:28:30;96676.94;;;6.70;45.02
16461;BME280;8341;42.048;24.650;2023-03-12T06:30:57;96686.97;;;6.78;45.42
16461;BME280;8341;42.048;24.650;2023-03-12T06:33:24;96691.44;;;6.90;44.99
16461;BME280;8341;42.048;24.650;2023-03-12T06:35:53;96690.63;;;6.99;45.49
16461;BME280;8341;42.048;24.650;2023-03-12T06:38:20;96701.81;;;6.92;45.04
16461;BME280;8341;42.048;24.650;2023-03-12T06:40:55;96706.13;;;6.99;45.49
16461;BME280;8341;42.048;24.650;2023-03-12T06:43:26;96702.72;;;6.89;44.04
16461;BME280;8341;42.048;24.650;2023-03-12T06:45:54;96711.66;;;7.04;45.05
16461;BME280;8341;42.048;24.650;2023-03-12T06:48:21;96707.28;;;7.07;45.10
16461;BME280;8341;42.048;24.650;2023-03-12T06:50:48;96737.19;;;7.21;43.31
16461;BME280;8341;42.048;24.650;2023-03-12T06:53:16;96721.56;;;7.16;44.96
16461;BME280;8341;42.048;24.650;2023-03-12T06:55:43;96731.56;;;7.01;44.25
16461;BME280;8341;42.048;24.650;2023-03-12T06:58:10;96726.84;;;7.11;43.58
16461;BME280;8341;42.048;24.650;2023-03-12T07:00:39;96725.06;;;7.08;43.66
16461;BME280;8341;42.048;24.650;2023-03-12T07:03:06;96736.88;;;7.19;44.95
16461;BME280;8341;42.048;24.650;2023-03-12T07:05:33;96744.59;;;7.12;44.17
16461;BME280;8341;42.048;24.650;2023-03-12T07:08:00;96751.72;;;7.33;44.63
16461;BME280;8341;42.048;24.650;2023-03-12T07:10:27;96752.63;;;7.30;44.65
16461;BME280;8341;42.048;24.650;2023-03-12T07:12:54;96764.00;;;7.43;44.77
16461;BME280;8341;42.048;24.650;2023-03-12T07:15:22;96762.22;;;7.40;44.30
16461;BME280;8341;42.048;24.650;2023-03-12T07:17:50;96774.06;;;7.51;44.55
16461;BME280;8341;42.048;24.650;2023-03-12T07:20:18;96758.22;;;7.50;44.31
16461;BME280;8341;42.048;24.650;2023-03-12T07:22:44;96754.59;;;7.53;44.13
16461;BME280;8341;42.048;24.650;2023-03-12T07:25:11;96757.06;;;7.66;43.26
16461;BME280;8341;42.048;24.650;2023-03-12T07:27:38;96756.13;;;7.69;44.56
16461;BME280;8341;42.048;24.650;2023-03-12T07:30:06;96751.81;;;7.62;43.73
16461;BME280;8341;42.048;24.650;2023-03-12T07:32:34;96745.75;;;7.67;42.91
16461;BME280;8341;42.048;24.650;2023-03-12T07:35:02;96749.00;;;7.56;44.78
16461;BME280;8341;42.048;24.650;2023-03-12T07:37:30;96737.53;;;7.76;44.41
16461;BME280;8341;42.048;24.650;2023-03-12T07:39:56;96749.25;;;7.82;43.53
16461;BME280;8341;42.048;24.650;2023-03-12T07:42:24;96754.94;;;7.70;42.99
16461;BME280;8341;42.048;24.650;2023-03-12T07:44:51;96745.81;;;7.58;42.97
16461;BME280;8341;42.048;24.650;2023-03-12T07:47:17;96748.06;;;7.60;44.15
16461;BME280;8341;42.048;24.650;2023-03-12T07:49:44;96741.75;;;7.77;42.17
16461;BME280;8341;42.048;24.650;2023-03-12T07:52:13;96739.69;;;7.87;44.13
16461;BME280;8341;42.048;24.650;2023-03-12T07:54:40;96741.13;;;7.97;44.27
16461;BME280;8341;42.048;24.650;2023-03-12T07:57:07;96736.34;;;8.06;43.78
16461;BME280;8341;42.048;24.650;2023-03-12T07:59:34;96736.00;;;8.13;43.44
16461;BME280;8341;42.048;24.650;2023-03-12T08:02:00;96738.03;;;7.89;43.92
16461;BME280;8341;42.048;24.650;2023-03-12T08:04:27;96737.22;;;7.60;41.59
16461;BME280;8341;42.048;24.650;2023-03-12T08:06:54;96734.78;;;7.62;43.18
16461;BME280;8341;42.048;24.650;2023-03-12T08:09:23;96746.81;;;7.84;43.75
16461;BME280;8341;42.048;24.650;2023-03-12T08:11:50;96742.69;;;7.74;41.43
16461;BME280;8341;42.048;24.650;2023-03-12T08:14:17;96751.53;;;7.98;42.36
16461;BME280;8341;42.048;24.650;2023-03-12T08:16:44;96751.22;;;7.96;43.03
16461;BME280;8341;42.048;24.650;2023-03-12T08:19:10;96745.44;;;8.03;41.53
16461;BME280;8341;42.048;24.650;2023-03-12T08:21:37;96754.88;;;7.93;43.78
16461;BME280;8341;42.048;24.650;2023-03-12T08:24:05;96744.03;;;8.23;44.34
16461;BME280;8341;42.048;24.650;2023-03-12T08:26:33;96748.72;;;8.22;42.52
16461;BME280;8341;42.048;24.650;2023-03-12T08:29:00;96754.56;;;8.30;42.87
16461;BME280;8341;42.048;24.650;2023-03-12T08:31:28;96757.63;;;8.23;43.34
16461;BME280;8341;42.048;24.650;2023-03-12T08:33:55;96759.63;;;8.37;42.66
16461;BME280;8341;42.048;24.650;2023-03-12T08:36:21;96750.53;;;8.40;41.95
16461;BME280;8341;42.048;24.650;2023-03-12T08:38:48;96749.78;;;8.54;42.78
16461;BME280;8341;42.048;24.650;2023-03-12T08:41:15;96742.53;;;8.65;42.21
16461;BME280;8341;42.048;24.650;2023-03-12T08:43:44;96752.97;;;8.67;41.64
16461;BME280;8341;42.048;24.650;2023-03-12T08:46:11;96744.75;;;8.47;42.44
16461;BME280;8341;42.048;24.650;2023-03-12T08:48:39;96750.88;;;8.76;41.74
16461;BME280;8341;42.048;24.650;2023-03-12T08:51:06;96747.97;;;8.80;42.03
16461;BME280;8341;42.048;24.650;2023-03-12T08:53:35;96745.88;;;8.90;41.60
16461;BME280;8341;42.048;24.650;2023-03-12T08:56:02;96740.84;;;8.82;41.58
16461;BME280;8341;42.048;24.650;2023-03-12T08:58:30;96734.25;;;8.89;41.22
16461;BME280;8341;42.048;24.650;2023-03-12T09:00:59;96738.34;;;8.99;41.54
16461;BME280;8341;42.048;24.650;2023-03-12T09:03:26;96740.97;;;9.08;40.92
16461;BME280;8341;42.048;24.650;2023-03-12T09:06:02;96760.09;;;8.99;38.70
16461;BME280;8341;42.048;24.650;2023-03-12T09:08:29;96749.41;;;9.10;39.91
16461;BME280;8341;42.048;24.650;2023-03-12T09:10:58;96739.22;;;9.25;37.90
16461;BME280;8341;42.048;24.650;2023-03-12T09:13:25;96737.84;;;9.35;39.18
16461;BME280;8341;42.048;24.650;2023-03-12T09:15:59;96718.81;;;8.80;38.12
16461;BME280;8341;42.048;24.650;2023-03-12T09:18:26;96724.84;;;9.05;39.81
16461;BME280;8341;42.048;24.650;2023-03-12T09:20:54;96738.06;;;9.32;40.50
16461;BME280;8341;42.048;24.650;2023-03-12T09:23:22;96738.19;;;9.43;37.96
16461;BME280;8341;42.048;24.650;2023-03-12T09:25:50;96751.88;;;9.49;38.39
16461;BME280;8341;42.048;24.650;2023-03-12T09:28:18;96726.75;;;8.99;39.43
16461;BME280;8341;42.048;24.650;2023-03-12T09:30:44;96741.41;;;9.41;39.75
16461;BME280;8341;42.048;24.650;2023-03-12T09:33:13;96728.13;;;9.49;38.56
16461;BME280;8341;42.048;24.650;2023-03-12T09:35:40;96731.88;;;9.52;38.78
16461;BME280;8341;42.048;24.650;2023-03-12T09:38:11;96743.19;;;9.44;37.89
16461;BME280;8341;42.048;24.650;2023-03-12T09:40:38;96742.22;;;8.93;35.86
16461;BME280;8341;42.048;24.650;2023-03-12T09:43:10;96749.03;;;9.03;35.82
16461;BME280;8341;42.048;24.650;2023-03-12T09:45:42;96746.41;;;8.59;36.58
16461;BME280;8341;42.048;24.650;2023-03-12T09:48:14;96753.81;;;9.08;39.18
16461;BME280;8341;42.048;24.650;2023-03-12T09:50:45;96744.25;;;9.32;38.06
16461;BME280;8341;42.048;24.650;2023-03-12T09:53:20;96733.69;;;9.40;38.10
16461;BME280;8341;42.048;24.650;2023-03-12T09:55:49;96723.16;;;9.27;36.06
16461;BME280;8341;42.048;24.650;2023-03-12T09:58:21;96748.28;;;9.37;34.22
16461;BME280;8341;42.048;24.650;2023-03-12T10:00:51;96730.28;;;9.25;36.27
16461;BME280;8341;42.048;24.650;2023-03-12T10:03:38;96747.00;;;9.53;36.74
16461;BME280;8341;42.048;24.650;2023-03-12T10:06:14;96732.16;;;9.54;34.42
16461;BME280;8341;42.048;24.650;2023-03-12T10:08:51;96755.75;;;9.62;35.60
16461;BME280;8341;42.048;24.650;2023-03-12T10:11:30;96763.09;;;9.56;35.19
16461;BME280;8341;42.048;24.650;2023-03-12T10:14:16;96773.53;;;9.78;35.37
16461;BME280;8341;42.048;24.650;2023-03-12T10:16:55;96760.03;;;9.89;33.93
16461;BME280;8341;42.048;24.650;2023-03-12T10:19:45;96758.38;;;10.17;33.98
16461;BME280;8341;42.048;24.650;2023-03-12T10:22:19;96750.81;;;10.06;34.34
16461;BME280;8341;42.048;24.650;2023-03-12T10:24:57;96761.97;;;10.29;34.29
16461;BME280;8341;42.048;24.650;2023-03-12T10:27:28;96768.47;;;10.37;33.91
16461;BME280;8341;42.048;24.650;2023-03-12T10:29:55;96754.94;;;10.22;36.81
16461;BME280;8341;42.048;24.650;2023-03-12T10:32:37;96761.94;;;10.54;34.72
16461;BME280;8341;42.048;24.650;2023-03-12T10:35:13;96755.38;;;10.72;36.04
16461;BME280;8341;42.048;24.650;2023-03-12T10:37:43;96760.50;;;10.90;35.44
16461;BME280;8341;42.048;24.650;2023-03-12T10:40:13;96757.34;;;11.03;35.66
16461;BME280;8341;42.048;24.650;2023-03-12T10:42:41;96742.38;;;11.35;36.14
16461;BME280;8341;42.048;24.650;2023-03-12T10:45:18;96748.69;;;11.52;34.66
16461;BME280;8341;42.048;24.650;2023-03-12T10:47:49;96769.53;;;11.07;33.38
16461;BME280;8341;42.048;24.650;2023-03-12T10:50:20;96753.75;;;10.86;34.64
16461;BME280;8341;42.048;24.650;2023-03-12T10:52:49;96774.03;;;10.22;33.88
16461;BME280;8341;42.048;24.650;2023-03-12T10:55:22;96758.38;;;9.97;33.34
16461;BME280;8341;42.048;24.650;2023-03-12T10:57:49;96760.38;;;10.17;36.10
16461;BME280;8341;42.048;24.650;2023-03-12T11:00:19;96758.03;;;10.35;35.86
16461;BME280;8341;42.048;24.650;2023-03-12T11:02:54;96762.72;;;10.29;37.62
16461;BME280;8341;42.048;24.650;2023-03-12T11:05:27;96761.09;;;10.17;34.62
16461;BME280;8341;42.048;24.650;2023-03-12T11:07:54;96779.75;;;10.04;33.37
16461;BME280;8341;42.048;24.650;2023-03-12T11:10:23;96767.44;;;10.08;34.18
16461;BME280;8341;42.048;24.650;2023-03-12T11:13:02;96773.06;;;10.51;35.88
16461;BME280;8341;42.048;24.650;2023-03-12T11:15:37;96768.66;;;10.59;34.54
16461;BME280;8341;42.048;24.650;2023-03-12T11:18:21;96763.69;;;10.06;35.98
16461;BME280;8341;42.048;24.650;2023-03-12T11:20:52;96751.06;;;10.29;35.91
16461;BME280;8341;42.048;24.650;2023-03-12T11:23:23;96743.66;;;10.60;36.41
16461;BME280;8341;42.048;24.650;2023-03-12T11:25:53;96750.84;;;10.63;34.42
16461;BME280;8341;42.048;24.650;2023-03-12T11:28:24;96737.53;;;9.94;34.95
16461;BME280;8341;42.048;24.650;2023-03-12T11:30:52;96743.34;;;10.27;36.15
16461;BME280;8341;42.048;24.650;2023-03-12T11:33:22;96745.13;;;10.61;35.16
16461;BME280;8341;42.048;24.650;2023-03-12T11:36:00;96750.03;;;10.26;34.08
16461;BME280;8341;42.048;24.650;2023-03-12T11:38:35;96761.22;;;10.28;35.90
16461;BME280;8341;42.048;24.650;2023-03-12T11:41:18;96747.50;;;10.48;36.97
16461;BME280;8341;42.048;24.650;2023-03-12T11:43:59;96756.09;;;10.67;36.60
16461;BME280;8341;42.048;24.650;2023-03-12T11:46:36;96742.31;;;10.82;37.13
16461;BME280;8341;42.048;24.650;2023-03-12T11:49:24;96741.59;;;10.87;36.14
16461;BME280;8341;42.048;24.650;2023-03-12T11:52:02;96757.16;;;11.12;36.73
16461;BME280;8341;42.048;24.650;2023-03-12T11:55:01;96745.50;;;11.11;33.44
16461;BME280;8341;42.048;24.650;2023-03-12T11:57:37;96741.28;;;11.10;35.48
16461;BME280;8341;42.048;24.650;2023-03-12T12:00:14;96734.44;;;11.31;34.99
16461;BME280;8341;42.048;24.650;2023-03-12T12:06:15;96751.34;;;11.36;34.27
16461;BME280;8341;42.048;24.650;2023-03-12T12:09:20;96738.69;;;10.59;33.49
16461;BME280;8341;42.048;24.650;2023-03-12T12:12:06;96737.19;;;10.95;35.85
16461;BME280;8341;42.048;24.650;2023-03-12T12:14:47;96740.75;;;11.06;35.87
16461;BME280;8341;42.048;24.650;2023-03-12T12:17:29;96748.22;;;10.75;35.52
16461;BME280;8341;42.048;24.650;2023-03-12T12:20:19;96742.28;;;10.76;35.70
16461;BME280;8341;42.048;24.650;2023-03-12T12:22:56;96737.25;;;11.00;36.09
16461;BME280;8341;42.048;24.650;2023-03-12T12:25:31;96736.81;;;11.13;35.48
16461;BME280;8341;42.048;24.650;2023-03-12T12:28:14;96740.09;;;11.17;34.79
16461;BME280;8341;42.048;24.650;2023-03-12T12:31:05;96745.03;;;11.18;34.93
16461;BME280;8341;42.048;24.650;2023-03-12T12:33:47;96753.25;;;11.24;35.12
16461;BME280;8341;42.048;24.650;2023-03-12T12:36:19;96748.72;;;11.63;34.82
16461;BME280;8341;42.048;24.650;2023-03-12T12:38:51;96757.28;;;11.34;35.01
16461;BME280;8341;42.048;24.650;2023-03-12T12:41:24;96744.03;;;11.16;34.24
16461;BME280;8341;42.048;24.650;2023-03-12T12:43:55;96739.28;;;11.11;34.20
16461;BME280;8341;42.048;24.650;2023-03-12T12:46:26;96735.13;;;11.21;35.17
16461;BME280;8341;42.048;24.650;2023-03-12T12:48:55;96747.13;;;11.40;35.17
16461;BME280;8341;42.048;24.650;2023-03-12T12:51:26;96757.28;;;11.34;34.83
16461;BME280;8341;42.048;24.650;2023-03-12T12:53:59;96742.59;;;11.26;34.51
16461;BME280;8341;42.048;24.650;2023-03-12T12:56:37;96758.84;;;11.46;33.51
16461;BME280;8341;42.048;24.650;2023-03-12T12:59:29;96760.78;;;10.66;33.19
16461;BME280;8341;42.048;24.650;2023-03-12T13:02:00;96769.47;;;10.96;33.83
16461;BME280;8341;42.048;24.650;2023-03-12T13:04:31;96765.72;;;10.94;32.95
16461;BME280;8341;42.048;24.650;2023-03-12T13:07:03;96765.56;;;11.08;34.39
16461;BME280;8341;42.048;24.650;2023-03-12T13:09:52;96766.50;;;11.00;35.60
16461;BME280;8341;42.048;24.650;2023-03-12T13:12:26;96761.59;;;10.73;33.55
16461;BME280;8341;42.048;24.650;2023-03-12T13:14:56;96758.38;;;10.74;34.10
16461;BME280;8341;42.048;24.650;2023-03-12T13:17:29;96759.28;;;10.97;36.28
16461;BME280;8341;42.048;24.650;2023-03-12T13:19:59;96757.84;;;11.07;34.25
16461;BME280;8341;42.048;24.650;2023-03-12T13:22:57;96764.69;;;11.28;34.98
16461;BME280;8341;42.048;24.650;2023-03-12T13:25:40;96763.91;;;11.16;33.34